sensor_id;sensor_type;location;lat;lon;timestamp;pressure;altitude;pressure_sealevel;temperature;humidity
4745;BME280;2386;42.138;24.746;2023-02-18T00:01:54;100334.16;;;10.41;44.77
4745;BME280;2386;42.138;24.746;2023-02-18T00:04:19;100333.09;;;10.49;43.04
4745;BME280;2386;42.138;24.746;2023-02-18T00:06:45;100335.81;;;10.56;43.90
4745;BME280;2386;42.138;24.746;2023-02-18T00:09:10;100325.81;;;10.49;42.41
4745;BME280;2386;42.138;24.746;2023-02-18T00:11:38;100324.56;;;10.45;43.04
4745;BME280;2386;42.138;24.746;2023-02-18T00:14:07;100327.13;;;10.27;43.21
4745;BME280;2386;42.138;24.746;2023-02-18T00:16:35;100324.41;;;10.27;43.46
4745;BME280;2386;42.138;24.746;2023-02-18T00:19:03;100325.66;;;10.31;44.46
4745;BME280;2386;42.138;24.746;2023-02-18T00:21:29;100313.38;;;10.29;44.30
4745;BME280;2386;42.138;24.746;2023-02-18T00:23:54;100318.34;;;10.38;44.76
4745;BME280;2386;42.138;24.746;2023-02-18T00:26:20;100317.09;;;10.34;43.69
4745;BME280;2386;42.138;24.746;2023-02-18T00:28:46;100308.16;;;10.27;43.85
4745;BME280;2386;42.138;24.746;2023-02-18T00:31:34;100313.16;;;10.24;43.42
4745;BME280;2386;42.138;24.746;2023-02-18T00:34:00;100308.38;;;10.26;43.53
4745;BME280;2386;42.138;24.746;2023-02-18T00:36:26;100308.16;;;10.14;43.83
4745;BME280;2386;42.138;24.746;2023-02-18T00:38:56;100309.19;;;10.13;43.90
4745;BME280;2386;42.138;24.746;2023-02-18T00:41:24;100292.09;;;10.06;43.42
4745;BME280;2386;42.138;24.746;2023-02-18T00:43:50;100293.97;;;10.12;43.36
4745;BME280;2386;42.138;24.746;2023-02-18T00:46:16;100292.50;;;10.16;43.80
4745;BME280;2386;42.138;24.746;2023-02-18T00:48:41;100288.34;;;10.13;43.41
4745;BME280;2386;42.138;24.746;2023-02-18T00:51:07;100278.56;;;9.93;44.24
4745;BME280;2386;42.138;24.746;2023-02-18T00:53:33;100271.25;;;9.93;44.43
4745;BME280;2386;42.138;24.746;2023-02-18T00:55:59;100272.09;;;10.00;43.88
4745;BME280;2386;42.138;24.746;2023-02-18T00:58:25;100265.00;;;9.93;44.38
4745;BME280;2386;42.138;24.746;2023-02-18T01:00:50;100259.56;;;10.06;43.84
4745;BME280;2386;42.138;24.746;2023-02-18T01:03:16;100252.47;;;10.11;44.80
4745;BME280;2386;42.138;24.746;2023-02-18T01:05:42;100244.16;;;10.06;44.85
4745;BME280;2386;42.138;24.746;2023-02-18T01:08:09;100242.25;;;10.07;45.58
4745;BME280;2386;42.138;24.746;2023-02-18T01:10:36;100245.81;;;10.07;46.13
4745;BME280;2386;42.138;24.746;2023-02-18T01:13:04;100249.16;;;10.03;46.12
4745;BME280;2386;42.138;24.746;2023-02-18T01:15:29;100235.41;;;9.98;46.02
4745;BME280;2386;42.138;24.746;2023-02-18T01:17:55;100233.31;;;10.00;46.30
4745;BME280;2386;42.138;24.746;2023-02-18T01:20:21;100237.06;;;9.99;46.34
4745;BME280;2386;42.138;24.746;2023-02-18T01:22:46;100230.81;;;9.98;45.45
4745;BME280;2386;42.138;24.746;2023-02-18T01:25:13;100235.59;;;10.03;46.36
4745;BME280;2386;42.138;24.746;2023-02-18T01:27:39;100236.25;;;9.92;46.14
4745;BME280;2386;42.138;24.746;2023-02-18T01:30:06;100230.84;;;9.85;46.12
4745;BME280;2386;42.138;24.746;2023-02-18T01:32:32;100235.81;;;9.95;45.27
4745;BME280;2386;42.138;24.746;2023-02-18T01:35:00;100224.16;;;9.94;44.84
4745;BME280;2386;42.138;24.746;2023-02-18T01:37:26;100221.03;;;9.91;44.66
4745;BME280;2386;42.138;24.746;2023-02-18T01:39:52;100220.84;;;9.85;45.75
4745;BME280;2386;42.138;24.746;2023-02-18T01:42:24;100221.31;;;9.63;47.17
4745;BME280;2386;42.138;24.746;2023-02-18T01:44:50;100217.97;;;9.61;46.15
4745;BME280;2386;42.138;24.746;2023-02-18T01:47:16;100222.16;;;9.50;47.62
4745;BME280;2386;42.138;24.746;2023-02-18T01:49:44;100202.16;;;9.31;47.19
4745;BME280;2386;42.138;24.746;2023-02-18T01:52:15;100203.00;;;9.32;46.29
4745;BME280;2386;42.138;24.746;2023-02-18T01:54:44;100207.97;;;9.21;46.25
4745;BME280;2386;42.138;24.746;2023-02-18T01:57:19;100216.94;;;9.15;46.45
4745;BME280;2386;42.138;24.746;2023-02-18T01:59:51;100224.81;;;9.10;46.58
4745;BME280;2386;42.138;24.746;2023-02-18T02:02:21;100216.94;;;9.15;46.27
4745;BME280;2386;42.138;24.746;2023-02-18T02:04:48;100213.78;;;8.99;46.67
4745;BME280;2386;42.138;24.746;2023-02-18T02:07:14;100210.03;;;8.93;46.80
4745;BME280;2386;42.138;24.746;2023-02-18T02:09:41;100200.03;;;8.80;47.19
4745;BME280;2386;42.138;24.746;2023-02-18T02:15:44;100215.84;;;8.77;47.03
4745;BME280;2386;42.138;24.746;2023-02-18T02:18:19;100211.44;;;8.63;47.58
4745;BME280;2386;42.138;24.746;2023-02-18T02:29:00;100227.59;;;8.49;47.43
4745;BME280;2386;42.138;24.746;2023-02-18T02:34:29;100219.88;;;8.40;47.64
4745;BME280;2386;42.138;24.746;2023-02-18T02:42:36;100225.59;;;8.17;48.46
4745;BME280;2386;42.138;24.746;2023-02-18T02:47:44;100223.75;;;8.31;48.08
4745;BME280;2386;42.138;24.746;2023-02-18T02:52:49;100227.22;;;8.59;47.97
4745;BME280;2386;42.138;24.746;2023-02-18T02:55:16;100222.06;;;8.71;47.46
4745;BME280;2386;42.138;24.746;2023-02-18T02:57:49;100234.94;;;8.62;47.14
4745;BME280;2386;42.138;24.746;2023-02-18T03:00:19;100234.97;;;8.69;47.20
4745;BME280;2386;42.138;24.746;2023-02-18T03:05:30;100233.31;;;8.74;47.56
4745;BME280;2386;42.138;24.746;2023-02-18T03:08:17;100231.25;;;8.76;46.73
4745;BME280;2386;42.138;24.746;2023-02-18T03:11:06;100222.91;;;8.78;46.93
4745;BME280;2386;42.138;24.746;2023-02-18T03:21:58;100199.44;;;9.38;45.21
4745;BME280;2386;42.138;24.746;2023-02-18T03:24:39;100196.94;;;9.56;45.71
4745;BME280;2386;42.138;24.746;2023-02-18T03:27:13;100198.38;;;9.65;45.56
4745;BME280;2386;42.138;24.746;2023-02-18T03:29:42;100195.03;;;9.70;45.03
4745;BME280;2386;42.138;24.746;2023-02-18T03:32:11;100188.34;;;9.66;46.12
4745;BME280;2386;42.138;24.746;2023-02-18T03:34:41;100195.00;;;9.76;44.60
4745;BME280;2386;42.138;24.746;2023-02-18T03:37:08;100193.94;;;9.91;44.24
4745;BME280;2386;42.138;24.746;2023-02-18T03:39:35;100192.06;;;9.91;43.06
4745;BME280;2386;42.138;24.746;2023-02-18T03:42:02;100192.44;;;10.08;42.83
4745;BME280;2386;42.138;24.746;2023-02-18T03:44:29;100193.25;;;10.08;43.60
4745;BME280;2386;42.138;24.746;2023-02-18T03:46:55;100194.91;;;10.16;43.18
4745;BME280;2386;42.138;24.746;2023-02-18T03:49:20;100196.81;;;10.22;42.54
4745;BME280;2386;42.138;24.746;2023-02-18T03:51:45;100203.88;;;10.23;41.99
4745;BME280;2386;42.138;24.746;2023-02-18T03:54:11;100205.75;;;10.29;41.72
4745;BME280;2386;42.138;24.746;2023-02-18T03:56:40;100217.34;;;10.43;41.35
4745;BME280;2386;42.138;24.746;2023-02-18T03:59:05;100222.31;;;10.52;41.14
4745;BME280;2386;42.138;24.746;2023-02-18T04:01:31;100225.22;;;10.51;41.03
4745;BME280;2386;42.138;24.746;2023-02-18T04:03:56;100227.25;;;10.24;41.98
4745;BME280;2386;42.138;24.746;2023-02-18T04:06:22;100225.38;;;10.05;42.53
4745;BME280;2386;42.138;24.746;2023-02-18T04:08:48;100225.59;;;9.97;42.51
4745;BME280;2386;42.138;24.746;2023-02-18T04:11:13;100221.66;;;9.93;42.36
4745;BME280;2386;42.138;24.746;2023-02-18T04:13:39;100222.47;;;10.00;42.03
4745;BME280;2386;42.138;24.746;2023-02-18T04:16:04;100225.38;;;10.11;42.15
4745;BME280;2386;42.138;24.746;2023-02-18T04:18:30;100232.88;;;10.16;42.02
4745;BME280;2386;42.138;24.746;2023-02-18T04:20:55;100232.44;;;10.26;40.90
4745;BME280;2386;42.138;24.746;2023-02-18T04:23:21;100240.13;;;10.35;40.92
4745;BME280;2386;42.138;24.746;2023-02-18T04:25:46;100235.94;;;10.39;41.08
4745;BME280;2386;42.138;24.746;2023-02-18T04:28:13;100238.81;;;10.44;40.52
4745;BME280;2386;42.138;24.746;2023-02-18T04:30:40;100233.63;;;10.43;40.71
4745;BME280;2386;42.138;24.746;2023-02-18T04:33:05;100229.00;;;10.50;40.25
4745;BME280;2386;42.138;24.746;2023-02-18T04:35:31;100240.19;;;10.67;40.34
4745;BME280;2386;42.138;24.746;2023-02-18T04:37:56;100247.78;;;10.90;39.52
4745;BME280;2386;42.138;24.746;2023-02-18T04:40:22;100249.00;;;11.00;39.58
4745;BME280;2386;42.138;24.746;2023-02-18T04:42:49;100248.72;;;11.08;39.41
4745;BME280;2386;42.138;24.746;2023-02-18T04:45:15;100257.63;;;11.15;38.49
4745;BME280;2386;42.138;24.746;2023-02-18T04:47:40;100246.94;;;11.20;38.56
4745;BME280;2386;42.138;24.746;2023-02-18T04:50:06;100248.78;;;11.27;38.71
4745;BME280;2386;42.138;24.746;2023-02-18T04:52:32;100243.13;;;11.28;38.68
4745;BME280;2386;42.138;24.746;2023-02-18T04:54:57;100236.88;;;11.28;39.76
4745;BME280;2386;42.138;24.746;2023-02-18T04:57:22;100235.38;;;11.32;40.17
4745;BME280;2386;42.138;24.746;2023-02-18T04:59:48;100243.97;;;11.29;40.41
4745;BME280;2386;42.138;24.746;2023-02-18T05:02:13;100240.03;;;11.25;40.53
4745;BME280;2386;42.138;24.746;2023-02-18T05:04:39;100247.34;;;11.24;40.69
4745;BME280;2386;42.138;24.746;2023-02-18T05:07:04;100242.97;;;11.23;40.41
4745;BME280;2386;42.138;24.746;2023-02-18T05:09:29;100243.69;;;11.12;41.06
4745;BME280;2386;42.138;24.746;2023-02-18T05:11:55;100252.69;;;11.12;41.67
4745;BME280;2386;42.138;24.746;2023-02-18T05:14:20;100251.66;;;11.07;41.56
4745;BME280;2386;42.138;24.746;2023-02-18T05:16:46;100245.00;;;11.03;41.15
4745;BME280;2386;42.138;24.746;2023-02-18T05:19:15;100246.88;;;11.02;41.48
4745;BME280;2386;42.138;24.746;2023-02-18T05:21:41;100247.50;;;11.04;40.56
4745;BME280;2386;42.138;24.746;2023-02-18T05:24:07;100241.84;;;11.06;39.82
4745;BME280;2386;42.138;24.746;2023-02-18T05:26:33;100244.13;;;11.09;39.54
4745;BME280;2386;42.138;24.746;2023-02-18T05:28:59;100238.28;;;11.12;40.49
4745;BME280;2386;42.138;24.746;2023-02-18T05:31:24;100234.88;;;11.16;40.59
4745;BME280;2386;42.138;24.746;2023-02-18T05:33:50;100230.34;;;11.10;40.50
4745;BME280;2386;42.138;24.746;2023-02-18T05:36:15;100226.56;;;11.11;40.72
4745;BME280;2386;42.138;24.746;2023-02-18T05:38:41;100232.84;;;11.12;41.62
4745;BME280;2386;42.138;24.746;2023-02-18T05:41:06;100222.03;;;11.05;41.19
4745;BME280;2386;42.138;24.746;2023-02-18T05:43:32;100229.13;;;11.06;39.87
4745;BME280;2386;42.138;24.746;2023-02-18T05:46:17;100228.81;;;11.14;39.16
4745;BME280;2386;42.138;24.746;2023-02-18T05:48:42;100226.41;;;11.31;38.80
4745;BME280;2386;42.138;24.746;2023-02-18T05:51:08;100228.84;;;11.39;38.35
4745;BME280;2386;42.138;24.746;2023-02-18T05:53:33;100238.16;;;11.50;38.48
4745;BME280;2386;42.138;24.746;2023-02-18T05:55:58;100238.78;;;11.52;38.22
4745;BME280;2386;42.138;24.746;2023-02-18T05:58:24;100234.44;;;11.44;38.46
4745;BME280;2386;42.138;24.746;2023-02-18T06:00:49;100232.19;;;11.41;38.38
4745;BME280;2386;42.138;24.746;2023-02-18T06:03:15;100245.03;;;11.28;38.69
4745;BME280;2386;42.138;24.746;2023-02-18T06:05:40;100236.38;;;11.12;39.29
4745;BME280;2386;42.138;24.746;2023-02-18T06:08:05;100240.28;;;11.16;38.95
4745;BME280;2386;42.138;24.746;2023-02-18T06:10:31;100232.00;;;11.11;39.01
4745;BME280;2386;42.138;24.746;2023-02-18T06:12:56;100234.09;;;11.09;39.75
4745;BME280;2386;42.138;24.746;2023-02-18T06:15:22;100238.34;;;10.99;39.32
4745;BME280;2386;42.138;24.746;2023-02-18T06:17:47;100230.44;;;10.97;39.75
4745;BME280;2386;42.138;24.746;2023-02-18T06:20:12;100250.03;;;10.99;39.92
4745;BME280;2386;42.138;24.746;2023-02-18T06:22:38;100244.69;;;10.86;39.91
4745;BME280;2386;42.138;24.746;2023-02-18T06:25:03;100235.88;;;10.91;40.02
4745;BME280;2386;42.138;24.746;2023-02-18T06:27:29;100240.84;;;11.00;40.00
4745;BME280;2386;42.138;24.746;2023-02-18T06:29:54;100233.56;;;10.94;40.22
4745;BME280;2386;42.138;24.746;2023-02-18T06:32:19;100237.72;;;10.97;39.67
4745;BME280;2386;42.138;24.746;2023-02-18T06:34:45;100241.25;;;11.04;39.78
4745;BME280;2386;42.138;24.746;2023-02-18T06:37:10;100239.78;;;11.01;40.24
4745;BME280;2386;42.138;24.746;2023-02-18T06:39:35;100246.72;;;10.97;40.18
4745;BME280;2386;42.138;24.746;2023-02-18T06:42:02;100246.66;;;11.04;39.92
4745;BME280;2386;42.138;24.746;2023-02-18T06:44:28;100241.97;;;11.17;39.95
4745;BME280;2386;42.138;24.746;2023-02-18T06:46:53;100236.97;;;11.14;39.73
4745;BME280;2386;42.138;24.746;2023-02-18T06:49:19;100240.66;;;11.27;39.67
4745;BME280;2386;42.138;24.746;2023-02-18T06:51:44;100216.72;;;11.42;38.25
4745;BME280;2386;42.138;24.746;2023-02-18T06:54:09;100203.19;;;11.60;37.45
4745;BME280;2386;42.138;24.746;2023-02-18T06:56:35;100200.31;;;11.80;37.42
4745;BME280;2386;42.138;24.746;2023-02-18T06:59:00;100185.94;;;11.91;38.06
4745;BME280;2386;42.138;24.746;2023-02-18T07:01:25;100185.56;;;12.06;37.83
4745;BME280;2386;42.138;24.746;2023-02-18T07:03:51;100179.59;;;12.15;37.25
4745;BME280;2386;42.138;24.746;2023-02-18T07:06:16;100194.94;;;12.28;37.45
4745;BME280;2386;42.138;24.746;2023-02-18T07:08:42;100193.13;;;12.40;37.76
4745;BME280;2386;42.138;24.746;2023-02-18T07:11:07;100195.69;;;12.54;37.41
4745;BME280;2386;42.138;24.746;2023-02-18T07:13:32;100210.34;;;12.53;36.73
4745;BME280;2386;42.138;24.746;2023-02-18T07:15:58;100220.69;;;12.62;36.78
4745;BME280;2386;42.138;24.746;2023-02-18T07:18:23;100211.69;;;12.62;36.70
4745;BME280;2386;42.138;24.746;2023-02-18T07:20:49;100185.88;;;12.64;36.81
4745;BME280;2386;42.138;24.746;2023-02-18T07:23:14;100188.88;;;12.74;36.76
4745;BME280;2386;42.138;24.746;2023-02-18T07:25:40;100200.50;;;12.81;36.19
4745;BME280;2386;42.138;24.746;2023-02-18T07:28:05;100197.69;;;12.88;36.19
4745;BME280;2386;42.138;24.746;2023-02-18T07:30:31;100204.22;;;12.99;36.16
4745;BME280;2386;42.138;24.746;2023-02-18T07:32:56;100202.94;;;13.01;36.42
4745;BME280;2386;42.138;24.746;2023-02-18T07:35:22;100181.53;;;13.05;36.61
4745;BME280;2386;42.138;24.746;2023-02-18T07:37:49;100180.13;;;13.14;35.90
4745;BME280;2386;42.138;24.746;2023-02-18T07:40:17;100168.91;;;13.22;35.84
4745;BME280;2386;42.138;24.746;2023-02-18T07:42:42;100165.63;;;13.32;35.32
4745;BME280;2386;42.138;24.746;2023-02-18T07:45:09;100170.34;;;13.36;35.76
4745;BME280;2386;42.138;24.746;2023-02-18T07:47:34;100170.09;;;13.38;35.76
4745;BME280;2386;42.138;24.746;2023-02-18T07:50:00;100163.25;;;13.35;35.65
4745;BME280;2386;42.138;24.746;2023-02-18T07:52:25;100161.22;;;13.31;35.65
4745;BME280;2386;42.138;24.746;2023-02-18T07:54:50;100169.28;;;13.26;35.77
4745;BME280;2386;42.138;24.746;2023-02-18T07:57:16;100154.59;;;13.27;36.00
4745;BME280;2386;42.138;24.746;2023-02-18T07:59:41;100159.22;;;13.26;36.26
4745;BME280;2386;42.138;24.746;2023-02-18T08:02:17;100152.34;;;13.24;36.29
4745;BME280;2386;42.138;24.746;2023-02-18T08:04:43;100142.16;;;13.31;36.07
4745;BME280;2386;42.138;24.746;2023-02-18T08:07:12;100154.34;;;13.40;35.67
4745;BME280;2386;42.138;24.746;2023-02-18T08:09:38;100151.25;;;13.48;36.16
4745;BME280;2386;42.138;24.746;2023-02-18T08:12:04;100147.22;;;13.62;35.44
4745;BME280;2386;42.138;24.746;2023-02-18T08:14:29;100153.03;;;13.77;36.07
4745;BME280;2386;42.138;24.746;2023-02-18T08:16:54;100142.34;;;13.88;35.92
4745;BME280;2386;42.138;24.746;2023-02-18T08:19:20;100144.81;;;14.01;35.40
4745;BME280;2386;42.138;24.746;2023-02-18T08:21:45;100136.75;;;14.06;35.62
4745;BME280;2386;42.138;24.746;2023-02-18T08:24:11;100152.81;;;14.19;35.12
4745;BME280;2386;42.138;24.746;2023-02-18T08:26:36;100146.41;;;14.25;34.79
4745;BME280;2386;42.138;24.746;2023-02-18T08:29:01;100152.69;;;14.26;35.21
4745;BME280;2386;42.138;24.746;2023-02-18T08:31:28;100155.88;;;14.34;34.94
4745;BME280;2386;42.138;24.746;2023-02-18T08:33:55;100152.06;;;14.35;34.96
4745;BME280;2386;42.138;24.746;2023-02-18T08:36:22;100140.56;;;14.45;34.95
4745;BME280;2386;42.138;24.746;2023-02-18T08:38:47;100144.69;;;14.48;35.29
4745;BME280;2386;42.138;24.746;2023-02-18T08:41:14;100144.66;;;14.59;34.98
4745;BME280;2386;42.138;24.746;2023-02-18T08:43:40;100141.88;;;14.71;35.29
4745;BME280;2386;42.138;24.746;2023-02-18T08:46:06;100145.19;;;14.90;34.50
4745;BME280;2386;42.138;24.746;2023-02-18T08:48:31;100140.66;;;14.95;34.92
4745;BME280;2386;42.138;24.746;2023-02-18T08:50:57;100142.97;;;15.03;34.65
4745;BME280;2386;42.138;24.746;2023-02-18T08:53:23;100141.81;;;15.16;34.11
4745;BME280;2386;42.138;24.746;2023-02-18T08:55:48;100129.66;;;15.24;34.30
4745;BME280;2386;42.138;24.746;2023-02-18T08:58:14;100143.81;;;15.37;33.37
4745;BME280;2386;42.138;24.746;2023-02-18T09:00:40;100137.69;;;15.47;34.05
4745;BME280;2386;42.138;24.746;2023-02-18T09:03:06;100138.91;;;15.56;33.67
4745;BME280;2386;42.138;24.746;2023-02-18T09:05:32;100133.53;;;15.61;33.31
4745;BME280;2386;42.138;24.746;2023-02-18T09:07:58;100136.81;;;15.80;33.49
4745;BME280;2386;42.138;24.746;2023-02-18T09:10:23;100135.72;;;15.81;33.25
4745;BME280;2386;42.138;24.746;2023-02-18T09:12:49;100134.97;;;15.86;33.72
4745;BME280;2386;42.138;24.746;2023-02-18T09:15:14;100133.97;;;15.92;32.94
4745;BME280;2386;42.138;24.746;2023-02-18T09:17:40;100135.16;;;16.01;32.71
4745;BME280;2386;42.138;24.746;2023-02-18T09:20:06;100131.69;;;16.05;32.01
4745;BME280;2386;42.138;24.746;2023-02-18T09:22:32;100131.09;;;16.03;32.16
4745;BME280;2386;42.138;24.746;2023-02-18T09:24:58;100138.56;;;16.08;32.31
4745;BME280;2386;42.138;24.746;2023-02-18T09:27:24;100143.53;;;16.11;31.93
4745;BME280;2386;42.138;24.746;2023-02-18T09:29:49;100131.56;;;16.17;32.49
4745;BME280;2386;42.138;24.746;2023-02-18T09:32:15;100126.78;;;16.29;32.91
4745;BME280;2386;42.138;24.746;2023-02-18T09:34:43;100136.66;;;16.35;32.49
4745;BME280;2386;42.138;24.746;2023-02-18T09:37:08;100131.19;;;16.35;32.05
4745;BME280;2386;42.138;24.746;2023-02-18T09:39:34;100137.31;;;16.42;32.46
4745;BME280;2386;42.138;24.746;2023-02-18T09:42:03;100134.56;;;16.42;32.40
4745;BME280;2386;42.138;24.746;2023-02-18T09:44:36;100147.56;;;16.52;32.57
4745;BME280;2386;42.138;24.746;2023-02-18T09:47:10;100136.84;;;16.51;32.43
4745;BME280;2386;42.138;24.746;2023-02-18T09:49:40;100135.63;;;16.63;32.92
4745;BME280;2386;42.138;24.746;2023-02-18T09:52:15;100137.66;;;16.73;33.29
4745;BME280;2386;42.138;24.746;2023-02-18T09:54:41;100139.38;;;16.79;33.37
4745;BME280;2386;42.138;24.746;2023-02-18T09:57:38;100129.56;;;16.83;32.52
4745;BME280;2386;42.138;24.746;2023-02-18T10:00:10;100119.78;;;16.92;32.75
4745;BME280;2386;42.138;24.746;2023-02-18T10:02:38;100115.44;;;16.96;32.88
4745;BME280;2386;42.138;24.746;2023-02-18T10:05:06;100117.44;;;17.06;32.69
4745;BME280;2386;42.138;24.746;2023-02-18T10:07:37;100098.00;;;17.07;32.10
4745;BME280;2386;42.138;24.746;2023-02-18T10:12:43;100076.22;;;17.33;31.75
4745;BME280;2386;42.138;24.746;2023-02-18T10:15:16;100074.94;;;17.46;31.22
4745;BME280;2386;42.138;24.746;2023-02-18T10:17:47;100061.56;;;17.59;31.13
4745;BME280;2386;42.138;24.746;2023-02-18T10:20:16;100057.03;;;17.75;31.97
4745;BME280;2386;42.138;24.746;2023-02-18T10:22:44;100052.38;;;17.81;30.86
4745;BME280;2386;42.138;24.746;2023-02-18T10:25:16;100062.25;;;17.87;30.17
4745;BME280;2386;42.138;24.746;2023-02-18T10:27:43;100055.47;;;17.99;31.27
4745;BME280;2386;42.138;24.746;2023-02-18T10:32:52;100052.75;;;18.10;30.43
4745;BME280;2386;42.138;24.746;2023-02-18T10:35:42;100040.97;;;18.14;30.75
4745;BME280;2386;42.138;24.746;2023-02-18T10:44:09;100028.06;;;18.20;29.41
4745;BME280;2386;42.138;24.746;2023-02-18T10:51:55;100024.47;;;18.09;28.49
4745;BME280;2386;42.138;24.746;2023-02-18T10:54:26;100016.53;;;18.13;28.80
4745;BME280;2386;42.138;24.746;2023-02-18T10:56:57;100019.53;;;18.11;28.61
4745;BME280;2386;42.138;24.746;2023-02-18T10:59:31;100019.56;;;18.21;28.68
4745;BME280;2386;42.138;24.746;2023-02-18T11:01:59;100006.41;;;18.33;29.45
4745;BME280;2386;42.138;24.746;2023-02-18T11:04:37;100003.94;;;18.42;28.93
4745;BME280;2386;42.138;24.746;2023-02-18T11:07:15;100000.38;;;18.57;29.61
4745;BME280;2386;42.138;24.746;2023-02-18T11:09:52;100013.31;;;18.66;28.73
4745;BME280;2386;42.138;24.746;2023-02-18T11:12:23;100011.94;;;18.74;28.52
4745;BME280;2386;42.138;24.746;2023-02-18T11:17:43;99990.75;;;18.95;28.41
4745;BME280;2386;42.138;24.746;2023-02-18T11:20:35;99987.75;;;18.86;28.65
4745;BME280;2386;42.138;24.746;2023-02-18T11:26:05;99982.81;;;18.83;28.74
4745;BME280;2386;42.138;24.746;2023-02-18T11:31:06;99978.13;;;18.79;28.76
4745;BME280;2386;42.138;24.746;2023-02-18T11:33:42;99974.56;;;18.83;28.60
4745;BME280;2386;42.138;24.746;2023-02-18T11:36:29;99965.19;;;18.99;29.15
4745;BME280;2386;42.138;24.746;2023-02-18T11:38:56;99958.03;;;19.09;28.57
4745;BME280;2386;42.138;24.746;2023-02-18T11:41:30;99961.28;;;19.31;28.41
4745;BME280;2386;42.138;24.746;2023-02-18T11:43:56;99968.44;;;19.27;27.52
4745;BME280;2386;42.138;24.746;2023-02-18T11:46:24;99965.13;;;19.25;28.07
4745;BME280;2386;42.138;24.746;2023-02-18T11:48:51;99962.38;;;19.30;27.88
4745;BME280;2386;42.138;24.746;2023-02-18T11:51:32;99968.16;;;19.28;27.54
4745;BME280;2386;42.138;24.746;2023-02-18T11:54:08;99962.88;;;19.32;27.96
4745;BME280;2386;42.138;24.746;2023-02-18T11:57:03;99962.84;;;19.42;27.66
4745;BME280;2386;42.138;24.746;2023-02-18T11:59:32;99965.59;;;19.47;27.63
4745;BME280;2386;42.138;24.746;2023-02-18T12:07:34;99948.75;;;19.64;27.81
4745;BME280;2386;42.138;24.746;2023-02-18T12:10:11;99930.94;;;19.51;28.04
4745;BME280;2386;42.138;24.746;2023-02-18T12:12:52;99937.53;;;19.55;28.27
4745;BME280;2386;42.138;24.746;2023-02-18T12:21:23;99921.63;;;19.91;27.91
4745;BME280;2386;42.138;24.746;2023-02-18T12:24:00;99910.31;;;19.98;28.15
4745;BME280;2386;42.138;24.746;2023-02-18T12:26:38;99924.59;;;20.05;28.77
4745;BME280;2386;42.138;24.746;2023-02-18T12:31:58;99903.13;;;20.36;29.34
4745;BME280;2386;42.138;24.746;2023-02-18T12:37:44;99901.19;;;20.37;28.82
4745;BME280;2386;42.138;24.746;2023-02-18T12:49:19;99895.66;;;20.42;28.37
4745;BME280;2386;42.138;24.746;2023-02-18T12:54:50;99877.25;;;20.32;29.01
4745;BME280;2386;42.138;24.746;2023-02-18T12:57:47;99880.28;;;20.30;28.52
4745;BME280;2386;42.138;24.746;2023-02-18T13:08:45;99869.88;;;20.22;28.98
4745;BME280;2386;42.138;24.746;2023-02-18T13:14:13;99863.34;;;20.13;29.66
4745;BME280;2386;42.138;24.746;2023-02-18T13:16:43;99872.66;;;20.22;30.00
4745;BME280;2386;42.138;24.746;2023-02-18T13:21:41;99856.31;;;20.31;29.85
4745;BME280;2386;42.138;24.746;2023-02-18T13:24:15;99865.94;;;20.39;30.33
4745;BME280;2386;42.138;24.746;2023-02-18T13:26:45;99866.75;;;20.34;30.31
4745;BME280;2386;42.138;24.746;2023-02-18T13:29:35;99869.81;;;20.32;30.14
4745;BME280;2386;42.138;24.746;2023-02-18T13:34:56;99863.59;;;20.17;30.47
4745;BME280;2386;42.138;24.746;2023-02-18T13:37:40;99857.31;;;20.11;31.03
4745;BME280;2386;42.138;24.746;2023-02-18T13:40:17;99862.28;;;20.09;30.60
4745;BME280;2386;42.138;24.746;2023-02-18T13:42:43;99865.69;;;20.01;31.04
4745;BME280;2386;42.138;24.746;2023-02-18T13:45:27;99867.41;;;19.92;30.83
4745;BME280;2386;42.138;24.746;2023-02-18T13:47:53;99871.78;;;19.93;31.01
4745;BME280;2386;42.138;24.746;2023-02-18T13:53:13;99864.44;;;19.83;30.39
4745;BME280;2386;42.138;24.746;2023-02-18T13:58:23;99864.09;;;19.90;30.24
4745;BME280;2386;42.138;24.746;2023-02-18T14:00:54;99848.66;;;19.94;30.00
4745;BME280;2386;42.138;24.746;2023-02-18T14:03:34;99866.81;;;19.95;30.04
4745;BME280;2386;42.138;24.746;2023-02-18T14:06:01;99859.09;;;19.97;30.48
4745;BME280;2386;42.138;24.746;2023-02-18T14:08:38;99870.13;;;19.97;30.00
4745;BME280;2386;42.138;24.746;2023-02-18T14:14:13;99871.75;;;19.98;30.01
4745;BME280;2386;42.138;24.746;2023-02-18T14:19:38;99867.91;;;19.99;29.80
4745;BME280;2386;42.138;24.746;2023-02-18T14:25:15;99859.66;;;19.94;29.90
4745;BME280;2386;42.138;24.746;2023-02-18T14:27:41;99864.34;;;19.93;30.52
4745;BME280;2386;42.138;24.746;2023-02-18T14:32:55;99860.06;;;19.77;30.63
4745;BME280;2386;42.138;24.746;2023-02-18T14:38:19;99859.34;;;19.61;30.76
4745;BME280;2386;42.138;24.746;2023-02-18T14:40:59;99851.13;;;19.51;31.08
4745;BME280;2386;42.138;24.746;2023-02-18T14:48:42;99847.53;;;19.51;31.57
4745;BME280;2386;42.138;24.746;2023-02-18T14:51:14;99844.78;;;19.51;31.06
4745;BME280;2386;42.138;24.746;2023-02-18T14:53:44;99844.25;;;19.44;32.99
4745;BME280;2386;42.138;24.746;2023-02-18T14:56:19;99848.47;;;19.31;32.05
4745;BME280;2386;42.138;24.746;2023-02-18T14:58:57;99846.03;;;19.24;32.51
4745;BME280;2386;42.138;24.746;2023-02-18T15:01:31;99845.25;;;19.19;31.72
4745;BME280;2386;42.138;24.746;2023-02-18T15:03:57;99834.56;;;19.07;31.98
4745;BME280;2386;42.138;24.746;2023-02-18T15:08:54;99831.28;;;19.00;32.01
4745;BME280;2386;42.138;24.746;2023-02-18T15:11:21;99846.94;;;19.10;31.70
4745;BME280;2386;42.138;24.746;2023-02-18T15:13:48;99845.25;;;19.14;32.01
4745;BME280;2386;42.138;24.746;2023-02-18T15:16:34;99835.94;;;19.10;32.52
4745;BME280;2386;42.138;24.746;2023-02-18T15:19:03;99825.50;;;19.01;31.91
4745;BME280;2386;42.138;24.746;2023-02-18T15:21:35;99824.44;;;18.97;32.50
4745;BME280;2386;42.138;24.746;2023-02-18T15:26:44;99829.66;;;18.94;31.97
4745;BME280;2386;42.138;24.746;2023-02-18T15:29:20;99826.94;;;18.89;31.86
4745;BME280;2386;42.138;24.746;2023-02-18T15:31:47;99822.28;;;18.84;31.96